Time;durP1;ratioP1;P1;durP2;ratioP2;P2;SDS_P1;SDS_P2;PMS_P1;PMS_P2;Temp;Humidity;BMP_temperature;BMP_pressure;BME280_temperature;BME280_humidity;BME280_pressure;Samples;Min_cycle;Max_cycle;Signal;HPM_P1;HPM_P2
2021/08/20 00:00:22;;;;;;;3.00;1.30;;;;;;;25.80;53.10;98026.78;5013888;28;20203;-69
2021/08/20 00:02:51;;;;;;;2.20;1.30;;;;;;;25.84;52.55;98025.09;5007629;28;20686;-69
2021/08/20 00:05:18;;;;;;;2.83;0.97;;;;;;;25.93;52.90;98026.06;5013157;28;20227;-68
2021/08/20 00:07:45;;;;;;;1.47;1.10;;;;;;;25.93;52.36;98024.13;5008119;28;20202;-69
2021/08/20 00:10:13;;;;;;;2.83;1.20;;;;;;;25.92;52.53;98024.44;5013707;28;20210;-69
2021/08/20 00:12:40;;;;;;;1.40;1.17;;;;;;;25.32;56.08;98015.22;5013635;28;20838;-69
2021/08/20 00:15:09;;;;;;;1.70;1.10;;;;;;;25.61;56.23;98004.94;5010013;28;20226;-69
2021/08/20 00:17:36;;;;;;;1.70;1.33;;;;;;;25.85;55.60;98008.38;5012541;28;20255;-69
2021/08/20 00:20:06;;;;;;;3.37;1.10;;;;;;;26.26;53.66;98014.00;5005231;28;20214;-69
2021/08/20 00:22:33;;;;;;;1.80;1.47;;;;;;;26.14;54.34;98010.94;5013813;28;20225;-69
2021/08/20 00:25:01;;;;;;;1.67;1.37;;;;;;;26.20;54.07;98007.00;5004986;28;20244;-69
2021/08/20 00:27:28;;;;;;;2.30;1.20;;;;;;;25.79;55.62;98006.03;5010901;28;20201;-70
2021/08/20 00:29:55;;;;;;;1.73;1.33;;;;;;;26.30;52.88;98006.81;5006464;28;20208;-70
2021/08/20 00:32:23;;;;;;;1.83;1.07;;;;;;;26.18;52.75;98009.19;5011832;28;20200;-71
2021/08/20 00:34:50;;;;;;;1.97;1.17;;;;;;;26.14;52.67;98017.22;5034359;22;21881;-65
2021/08/20 00:37:18;;;;;;;1.63;1.20;;;;;;;26.01;54.99;98004.31;5027828;28;20221;-65
2021/08/20 00:39:46;;;;;;;0.90;0.80;;;;;;;26.17;53.58;98002.13;5032400;28;20689;-65
2021/08/20 00:42:13;;;;;;;2.30;1.20;;;;;;;26.32;53.20;97999.09;5032704;28;20285;-65
2021/08/20 00:44:40;;;;;;;3.77;1.10;;;;;;;26.28;52.47;97998.06;5032352;28;20221;-65
2021/08/20 00:47:08;;;;;;;1.77;1.13;;;;;;;26.22;52.82;98002.84;5032126;28;20199;-65
2021/08/20 00:49:35;;;;;;;2.07;1.17;;;;;;;25.97;53.97;97999.72;5032221;28;20219;-65
2021/08/20 00:52:03;;;;;;;2.47;1.47;;;;;;;25.78;54.97;98002.47;5025263;28;20289;-65
2021/08/20 00:54:32;;;;;;;2.10;1.33;;;;;;;25.92;55.07;98003.38;5032470;28;20203;-65
2021/08/20 00:56:59;;;;;;;2.27;1.30;;;;;;;25.98;54.91;97995.88;5029972;28;20207;-65
2021/08/20 00:59:27;;;;;;;4.33;1.10;;;;;;;25.86;55.31;97993.59;5032152;28;20206;-65
2021/08/20 01:01:54;;;;;;;1.83;1.37;;;;;;;25.89;55.06;97992.19;5032067;28;20207;-66
2021/08/20 01:04:21;;;;;;;1.60;1.27;;;;;;;26.05;53.97;97996.31;5031876;28;20207;-66
2021/08/20 01:06:49;;;;;;;2.23;1.10;;;;;;;25.98;54.03;98002.16;5031615;28;20317;-65
2021/08/20 01:09:16;;;;;;;1.27;1.10;;;;;;;25.52;55.67;98005.91;5031474;28;20202;-66
2021/08/20 01:11:45;;;;;;;2.60;1.20;;;;;;;25.46;56.87;97996.16;5029790;28;20660;-66
2021/08/20 01:14:16;;;;;;;1.80;1.20;;;;;;;25.49;57.05;97992.84;5032076;28;20214;-65
2021/08/20 01:16:43;;;;;;;2.87;1.20;;;;;;;25.42;58.30;97976.81;5031381;28;20252;-65
2021/08/20 01:19:11;;;;;;;1.40;1.30;;;;;;;25.66;56.21;97999.41;5031574;28;20222;-66
2021/08/20 01:21:38;;;;;;;1.60;0.97;;;;;;;25.36;59.12;97994.41;5030787;28;20676;-65
2021/08/20 01:24:06;;;;;;;2.67;1.47;;;;;;;25.96;56.13;97993.47;5031914;28;20244;-65
2021/08/20 01:26:35;;;;;;;1.87;1.50;;;;;;;25.85;56.43;97994.69;5031120;28;20239;-65
2021/08/20 01:29:02;;;;;;;2.00;1.40;;;;;;;25.86;54.87;98003.72;5030971;28;20208;-65
2021/08/20 01:31:30;;;;;;;1.40;1.00;;;;;;;25.91;55.20;98004.50;5031893;28;20209;-65
2021/08/20 01:33:57;;;;;;;1.77;1.40;;;;;;;25.25;59.51;97981.16;5031645;28;20218;-65
2021/08/20 01:36:24;;;;;;;2.27;1.43;;;;;;;25.36;58.98;97978.00;5030233;28;20256;-65
2021/08/20 01:38:52;;;;;;;2.07;1.40;;;;;;;25.68;56.95;97986.25;5031834;28;20229;-65
2021/08/20 01:41:21;;;;;;;1.30;1.20;;;;;;;26.08;54.94;97987.50;5031664;28;20208;-65
2021/08/20 01:43:50;;;;;;;2.00;1.43;;;;;;;26.14;55.44;97991.78;5031570;28;20217;-66
2021/08/20 01:46:18;;;;;;;1.83;1.23;;;;;;;26.33;54.32;97989.78;5031016;28;20222;-65
2021/08/20 01:48:47;;;;;;;1.43;1.33;;;;;;;26.14;55.12;97997.25;5031818;28;20218;-65
2021/08/20 01:51:16;;;;;;;1.30;1.20;;;;;;;26.36;54.16;97991.91;5024261;28;20216;-67
2021/08/20 01:53:44;;;;;;;2.20;1.27;;;;;;;25.89;56.09;97989.47;5031730;28;20205;-67
2021/08/20 01:56:16;;;;;;;2.60;1.30;;;;;;;26.12;55.63;97981.16;5023546;28;20253;-65
2021/08/20 01:58:44;;;;;;;1.40;1.20;;;;;;;26.10;55.56;97983.34;5030865;28;20225;-66
2021/08/20 02:01:13;;;;;;;5.37;1.50;;;;;;;26.09;55.75;97986.41;5031395;28;20202;-66
2021/08/20 02:03:40;;;;;;;1.37;1.07;;;;;;;26.20;55.29;97988.63;5030996;28;20208;-65
2021/08/20 02:06:07;;;;;;;1.40;1.20;;;;;;;25.89;56.15;97994.94;5031016;28;20238;-65
2021/08/20 02:08:35;;;;;;;2.17;1.30;;;;;;;25.92;56.16;97989.69;5031354;28;20202;-66
2021/08/20 02:11:03;;;;;;;2.60;1.27;;;;;;;25.82;56.65;97986.28;5031303;28;20221;-65
2021/08/20 02:13:30;;;;;;;2.00;1.10;;;;;;;26.09;55.60;97997.34;5031578;28;20209;-65
2021/08/20 02:15:58;;;;;;;3.27;1.40;;;;;;;26.09;54.39;97998.16;5031069;28;20225;-65
2021/08/20 02:18:26;;;;;;;1.20;1.10;;;;;;;26.27;54.49;97994.56;5031697;28;20225;-65
2021/08/20 02:20:54;;;;;;;1.40;1.27;;;;;;;25.86;56.65;97990.06;5031090;28;20217;-65
2021/08/20 02:23:21;;;;;;;1.83;1.20;;;;;;;26.06;55.76;97984.25;5033160;28;20208;-65
2021/08/20 02:25:49;;;;;;;2.47;1.20;;;;;;;26.04;55.82;97990.03;5034403;28;20228;-65
2021/08/20 02:28:16;;;;;;;1.87;1.23;;;;;;;25.92;56.71;97991.63;5035718;28;20211;-66
2021/08/20 02:30:43;;;;;;;1.70;1.20;;;;;;;25.73;57.83;97988.88;5034999;28;20205;-66
2021/08/20 02:33:10;;;;;;;3.23;1.43;;;;;;;25.97;56.97;97997.81;5036153;28;20671;-65
2021/08/20 02:35:39;;;;;;;2.40;1.20;;;;;;;25.80;57.89;97993.97;5034397;28;20604;-66
2021/08/20 02:38:06;;;;;;;1.40;1.20;;;;;;;25.94;57.36;97995.69;5035195;28;20604;-65
2021/08/20 02:40:34;;;;;;;1.70;1.20;;;;;;;26.24;55.48;97997.88;5035063;28;20216;-65
2021/08/20 02:43:01;;;;;;;4.00;1.13;;;;;;;26.15;56.27;97991.47;5034582;28;20221;-65
2021/08/20 02:45:29;;;;;;;1.83;1.17;;;;;;;26.06;56.18;97992.47;5034898;28;20226;-66
2021/08/20 02:47:56;;;;;;;2.60;1.43;;;;;;;26.16;56.41;98000.50;5035133;28;20553;-66
2021/08/20 02:50:23;;;;;;;1.57;1.17;;;;;;;25.94;57.59;97992.16;5034895;28;20573;-65
2021/08/20 02:52:52;;;;;;;3.33;1.63;;;;;;;26.35;55.35;97998.50;5034587;28;20218;-65
2021/08/20 02:55:21;;;;;;;1.70;1.57;;;;;;;26.20;55.71;97999.59;5034321;28;20702;-65
2021/08/20 02:57:48;;;;;;;2.07;1.30;;;;;;;26.00;56.07;97999.16;5034673;28;20242;-65
2021/08/20 03:00:16;;;;;;;3.47;1.30;;;;;;;25.77;58.20;97994.56;5035247;28;20202;-65
2021/08/20 03:02:44;;;;;;;1.80;1.20;;;;;;;26.00;57.16;97993.69;5034670;28;20205;-65
2021/08/20 03:05:11;;;;;;;1.83;1.33;;;;;;;25.95;57.60;97996.50;5034768;28;20234;-66
2021/08/20 03:07:38;;;;;;;2.50;1.30;;;;;;;25.76;58.48;97993.78;5034727;28;20707;-66
2021/08/20 03:10:08;;;;;;;2.47;1.50;;;;;;;26.26;56.06;97997.59;5034394;28;20682;-66
2021/08/20 03:12:35;;;;;;;3.63;1.47;;;;;;;25.85;58.05;97991.97;5034724;28;20202;-65
2021/08/20 03:15:02;;;;;;;4.60;1.87;;;;;;;26.18;56.62;97996.34;5034109;28;20786;-66
2021/08/20 03:17:30;;;;;;;1.80;1.30;;;;;;;26.01;56.48;97992.56;5033979;28;20203;-66
2021/08/20 03:19:57;;;;;;;3.60;1.50;;;;;;;25.97;57.09;97995.09;5033841;28;20217;-65
2021/08/20 03:22:24;;;;;;;4.00;1.60;;;;;;;25.88;57.35;97990.56;5034599;28;20202;-65
2021/08/20 03:24:51;;;;;;;3.80;1.40;;;;;;;26.39;56.25;97991.28;5033804;28;20230;-66
2021/08/20 03:27:20;;;;;;;2.67;1.70;;;;;;;26.19;56.78;97994.44;5034393;28;20866;-66
2021/08/20 03:29:48;;;;;;;1.90;1.43;;;;;;;25.91;57.72;97995.44;5034229;28;20216;-66
2021/08/20 03:32:15;;;;;;;2.47;1.90;;;;;;;25.91;58.66;97992.69;5034361;28;20753;-66
2021/08/20 03:34:42;;;;;;;3.23;1.67;;;;;;;26.16;57.97;97995.03;5031463;28;20222;-66
2021/08/20 03:37:09;;;;;;;3.47;1.60;;;;;;;26.13;57.13;98001.09;5033922;28;20208;-67
2021/08/20 03:39:37;;;;;;;2.67;1.40;;;;;;;26.01;57.47;97990.66;5033618;28;20229;-65
2021/08/20 03:42:04;;;;;;;1.50;1.30;;;;;;;25.99;58.26;97992.84;5033857;28;20209;-65
2021/08/20 03:44:33;;;;;;;2.57;1.77;;;;;;;26.01;57.52;97996.13;5033686;28;20212;-66
2021/08/20 03:47:00;;;;;;;2.50;1.30;;;;;;;26.41;55.20;98005.50;5033202;28;20217;-66
2021/08/20 03:49:28;;;;;;;3.23;1.63;;;;;;;25.90;57.51;97996.56;5033751;28;20211;-66
2021/08/20 03:51:55;;;;;;;3.33;1.50;;;;;;;25.41;60.46;97990.78;5033653;28;20207;-66
2021/08/20 03:54:22;;;;;;;1.80;1.40;;;;;;;25.55;60.12;97989.75;5033672;28;20213;-66
2021/08/20 03:56:50;;;;;;;3.13;1.60;;;;;;;25.70;58.73;97994.16;5033266;28;20693;-66
2021/08/20 03:59:17;;;;;;;2.63;1.70;;;;;;;25.80;58.85;97993.97;5033454;28;20224;-66
2021/08/20 04:01:45;;;;;;;2.97;1.70;;;;;;;25.88;59.17;97994.09;5033239;28;20214;-66
2021/08/20 04:04:13;;;;;;;2.73;1.53;;;;;;;25.73;59.59;97999.00;5031518;28;20221;-66
2021/08/20 04:06:40;;;;;;;1.63;1.30;;;;;;;25.81;58.38;98001.91;5033316;28;20234;-67
2021/08/20 04:09:08;;;;;;;2.80;1.40;;;;;;;25.97;57.81;97997.81;5026958;28;20685;-66
2021/08/20 04:11:35;;;;;;;1.70;1.40;;;;;;;25.60;59.84;98005.25;5033788;28;20213;-66
2021/08/20 04:14:03;;;;;;;3.20;1.67;;;;;;;25.65;60.56;97996.97;5032710;28;20217;-67
2021/08/20 04:16:31;;;;;;;2.77;1.70;;;;;;;25.55;60.90;97989.75;5032962;28;20728;-68
2021/08/20 04:18:59;;;;;;;3.10;1.70;;;;;;;25.45;61.02;97992.63;5033069;28;20605;-66
2021/08/20 04:21:26;;;;;;;2.97;1.70;;;;;;;25.86;58.75;97993.59;5033430;28;20213;-67
2021/08/20 04:23:54;;;;;;;2.67;1.70;;;;;;;25.92;58.51;98006.13;5033415;28;20697;-66
2021/08/20 04:26:21;;;;;;;1.80;1.40;;;;;;;25.90;58.81;98010.22;5032937;28;20222;-66
2021/08/20 04:28:51;;;;;;;1.70;1.30;;;;;;;25.73;60.54;98007.19;5032350;28;20286;-67
2021/08/20 04:31:19;;;;;;;3.97;1.73;;;;;;;25.70;59.86;98011.34;5033443;28;20202;-66
2021/08/20 04:33:46;;;;;;;2.17;1.67;;;;;;;25.93;58.08;98012.38;5032825;28;20198;-66
2021/08/20 04:36:15;;;;;;;2.27;1.40;;;;;;;26.00;57.41;98021.03;5032009;28;20237;-66
2021/08/20 04:38:43;;;;;;;3.00;1.90;;;;;;;25.91;57.93;98020.91;5032944;28;20592;-66
2021/08/20 04:41:11;;;;;;;2.37;1.43;;;;;;;25.81;59.22;98014.75;5032566;28;20290;-66
2021/08/20 04:43:38;;;;;;;3.47;1.60;;;;;;;26.04;58.37;98020.13;5032958;28;20203;-66
2021/08/20 04:46:06;;;;;;;2.23;1.90;;;;;;;26.37;55.73;98024.47;5031346;28;20225;-68
2021/08/20 04:48:33;;;;;;;2.60;1.83;;;;;;;26.19;55.69;98024.53;5031903;28;20816;-66
2021/08/20 04:51:00;;;;;;;4.60;1.80;;;;;;;25.97;56.40;98033.38;5032831;28;20237;-66
2021/08/20 04:53:30;;;;;;;3.63;1.80;;;;;;;25.88;57.21;98028.84;5032691;28;20210;-66
2021/08/20 04:55:58;;;;;;;2.40;1.60;;;;;;;25.87;58.09;98030.78;5030666;28;20290;-66
2021/08/20 04:58:25;;;;;;;2.73;1.80;;;;;;;25.96;58.86;98029.03;5032794;28;20237;-66
2021/08/20 05:00:53;;;;;;;2.30;1.53;;;;;;;25.66;59.83;98028.66;5032250;28;20691;-66
2021/08/20 05:03:21;;;;;;;3.03;1.80;;;;;;;26.20;57.29;98035.16;5033141;28;20289;-66
2021/08/20 05:05:48;;;;;;;3.30;1.60;;;;;;;25.90;59.36;98037.56;5031281;28;20230;-67
2021/08/20 05:08:16;;;;;;;4.03;2.33;;;;;;;26.05;58.31;98029.16;5032287;28;20202;-66
2021/08/20 05:10:44;;;;;;;7.40;2.13;;;;;;;26.15;58.25;98032.50;5032232;28;20217;-68
2021/08/20 05:13:12;;;;;;;7.17;1.97;;;;;;;26.66;55.57;98035.97;5032442;28;20672;-67
2021/08/20 05:15:39;;;;;;;4.53;2.13;;;;;;;26.21;57.71;98046.91;5031954;28;20230;-66
2021/08/20 05:18:06;;;;;;;2.57;1.60;;;;;;;26.46;56.37;98046.47;5032359;28;20203;-66
2021/08/20 05:20:33;;;;;;;1.97;1.60;;;;;;;26.26;56.43;98047.66;5033523;28;20213;-65
2021/08/20 05:23:01;;;;;;;2.20;1.80;;;;;;;26.06;58.88;98044.44;5031593;28;20297;-66
2021/08/20 05:25:33;;;;;;;2.57;1.60;;;;;;;26.47;56.80;98053.56;5031831;28;20229;-67
2021/08/20 05:28:03;;;;;;;3.10;1.70;;;;;;;26.77;54.79;98061.25;5031999;28;20221;-66
2021/08/20 05:30:30;;;;;;;3.00;1.90;;;;;;;26.67;55.76;98066.91;5031174;28;20257;-65
2021/08/20 05:32:57;;;;;;;4.10;2.10;;;;;;;26.52;57.15;98062.50;5031816;28;20216;-66
2021/08/20 05:35:25;;;;;;;4.53;1.60;;;;;;;26.22;57.76;98062.22;5030234;28;20226;-66
2021/08/20 05:37:52;;;;;;;3.17;1.80;;;;;;;26.73;55.80;98061.03;5032087;28;20217;-66
2021/08/20 05:40:19;;;;;;;5.07;1.80;;;;;;;27.03;54.05;98068.66;5031720;28;20222;-66
2021/08/20 05:42:46;;;;;;;3.13;2.20;;;;;;;27.02;53.72;98066.22;5031821;28;20206;-67
2021/08/20 05:45:15;;;;;;;3.33;1.70;;;;;;;26.99;53.71;98069.56;5031409;28;20242;-66
2021/08/20 05:47:42;;;;;;;3.50;1.80;;;;;;;26.74;54.70;98073.63;5031229;28;20670;-66
2021/08/20 05:50:10;;;;;;;6.97;2.17;;;;;;;26.84;55.23;98070.69;5031400;28;20899;-66
2021/08/20 05:52:38;;;;;;;12.20;2.87;;;;;;;26.75;55.59;98067.00;5030742;28;20659;-66
2021/08/20 05:55:07;;;;;;;3.07;1.73;;;;;;;26.28;58.12;98081.00;5028163;28;20230;-66
2021/08/20 05:57:34;;;;;;;5.30;2.07;;;;;;;26.67;56.44;98078.69;5029956;28;20566;-66
2021/08/20 06:00:02;;;;;;;2.43;1.77;;;;;;;26.97;56.29;98074.53;5031286;28;20244;-65
2021/08/20 06:02:30;;;;;;;2.47;1.50;;;;;;;26.66;57.53;98084.47;5031722;28;20568;-67
2021/08/20 06:04:59;;;;;;;4.07;1.87;;;;;;;26.99;56.29;98080.50;5031117;28;20226;-66
2021/08/20 06:07:26;;;;;;;3.43;1.80;;;;;;;26.96;55.97;98083.88;5028000;28;20209;-66
2021/08/20 06:09:53;;;;;;;4.30;2.70;;;;;;;27.28;55.41;98086.53;5027233;28;20202;-66
2021/08/20 06:12:21;;;;;;;6.60;2.33;;;;;;;27.05;54.93;98088.34;5031637;28;20203;-66
2021/08/20 06:14:48;;;;;;;4.73;2.20;;;;;;;27.06;53.50;98100.13;5031096;28;20222;-66
2021/08/20 06:17:15;;;;;;;4.23;2.50;;;;;;;27.56;50.44;98099.88;5031435;28;20207;-65
2021/08/20 06:19:44;;;;;;;4.10;2.33;;;;;;;27.61;50.99;98094.28;5031115;28;20219;-66
2021/08/20 06:22:11;;;;;;;7.80;2.40;;;;;;;25.98;57.64;98086.13;5030662;28;20678;-65
2021/08/20 06:24:38;;;;;;;4.00;2.03;;;;;;;27.17;53.16;98101.53;5030962;28;20199;-66
2021/08/20 06:27:06;;;;;;;5.03;2.33;;;;;;;27.31;52.08;98097.69;5030882;28;20202;-67
2021/08/20 06:29:34;;;;;;;4.67;2.20;;;;;;;26.23;57.79;98092.03;5030505;28;20226;-66
2021/08/20 06:32:01;;;;;;;3.53;2.30;;;;;;;26.09;57.88;98095.84;5034876;28;20658;-66
2021/08/20 06:34:30;;;;;;;3.33;2.50;;;;;;;26.31;56.51;98104.22;5027380;28;20202;-66
2021/08/20 06:36:59;;;;;;;6.27;2.50;;;;;;;27.18;53.75;98106.75;5031936;28;20217;-67
2021/08/20 06:39:26;;;;;;;5.67;2.57;;;;;;;27.47;51.68;98109.94;5030714;28;21145;-66
2021/08/20 06:41:53;;;;;;;5.73;2.37;;;;;;;26.77;55.14;98105.88;5031335;28;20230;-66
2021/08/20 06:44:20;;;;;;;5.80;2.53;;;;;;;27.83;50.79;98116.31;5031089;28;20202;-66
2021/08/20 06:46:48;;;;;;;7.27;3.13;;;;;;;26.85;54.90;98118.88;5031202;28;20242;-66
2021/08/20 06:49:15;;;;;;;6.07;2.90;;;;;;;27.45;53.06;98098.50;5030697;28;20203;-66
2021/08/20 06:51:42;;;;;;;6.60;3.00;;;;;;;27.57;51.97;98103.47;5030938;28;20209;-66
2021/08/20 06:54:11;;;;;;;5.20;3.30;;;;;;;26.65;55.11;98110.22;5031023;28;20207;-66
2021/08/20 06:56:38;;;;;;;5.30;2.90;;;;;;;27.73;51.88;98107.47;5030407;28;20227;-66
2021/08/20 06:59:05;;;;;;;4.47;2.93;;;;;;;27.65;52.29;98097.22;5031046;28;20218;-66
2021/08/20 07:01:33;;;;;;;4.97;3.33;;;;;;;27.90;51.24;98105.72;5031022;28;20207;-66
2021/08/20 07:04:00;;;;;;;5.30;3.30;;;;;;;27.09;53.79;98108.53;5030378;28;20583;-66
2021/08/20 07:06:29;;;;;;;4.20;2.80;;;;;;;27.18;54.69;98097.69;5029291;28;20230;-66
2021/08/20 07:08:56;;;;;;;5.23;2.90;;;;;;;28.02;51.53;98091.47;5030856;28;20222;-66
2021/08/20 07:11:26;;;;;;;4.80;3.43;;;;;;;26.91;56.18;98086.72;5034718;28;20217;-66
2021/08/20 07:13:53;;;;;;;6.47;4.00;;;;;;;27.16;56.19;98092.50;5034290;28;20210;-66
2021/08/20 07:16:21;;;;;;;9.03;4.33;;;;;;;27.68;52.60;98100.19;5034580;28;20314;-67
2021/08/20 07:18:49;;;;;;;5.53;3.77;;;;;;;28.08;51.26;98101.19;5034133;28;20221;-67
2021/08/20 07:21:16;;;;;;;6.23;3.90;;;;;;;28.90;48.79;98100.47;5034834;28;20198;-67
2021/08/20 07:23:43;;;;;;;17.07;5.00;;;;;;;28.00;51.83;98107.41;5034464;28;20669;-67
2021/08/20 07:26:11;;;;;;;8.70;5.10;;;;;;;27.97;51.26;98108.06;5034630;28;20223;-67
2021/08/20 07:28:40;;;;;;;10.27;4.97;;;;;;;27.60;52.35;98100.91;5034527;28;20209;-67
2021/08/20 07:31:07;;;;;;;7.90;5.03;;;;;;;27.76;50.83;98107.66;5034523;28;20209;-67
2021/08/20 07:33:34;;;;;;;7.07;4.97;;;;;;;27.94;51.21;98100.44;5034223;28;20207;-67
2021/08/20 07:36:02;;;;;;;7.50;4.40;;;;;;;28.16;50.54;98108.66;5033433;28;20239;-67
2021/08/20 07:38:29;;;;;;;8.37;4.47;;;;;;;27.41;53.91;98100.22;5034450;28;20207;-67
2021/08/20 07:40:56;;;;;;;6.23;4.73;;;;;;;27.87;51.30;98109.09;5033344;28;20231;-67
2021/08/20 07:43:24;;;;;;;7.53;4.57;;;;;;;28.18;49.40;98111.94;5034261;28;20203;-67
2021/08/20 07:45:52;;;;;;;8.30;5.47;;;;;;;28.12;49.57;98115.94;5033260;28;20228;-67
2021/08/20 07:48:20;;;;;;;6.50;4.70;;;;;;;27.70;51.02;98110.81;5033934;28;20206;-67
2021/08/20 07:50:48;;;;;;;5.57;3.73;;;;;;;27.91;52.35;98101.03;5032693;28;20195;-67
2021/08/20 07:53:16;;;;;;;6.10;4.03;;;;;;;28.14;50.52;98103.53;5034036;28;20229;-67
2021/08/20 07:55:44;;;;;;;6.20;4.47;;;;;;;28.69;47.50;98112.31;5033270;28;20231;-67
2021/08/20 07:58:11;;;;;;;5.47;3.90;;;;;;;28.68;46.91;98118.94;5034130;28;20206;-67
2021/08/20 08:00:38;;;;;;;6.90;3.90;;;;;;;29.05;46.48;98116.56;5033049;28;20227;-66
2021/08/20 08:03:07;;;;;;;7.73;3.67;;;;;;;29.54;45.12;98119.00;5033584;28;20207;-66
2021/08/20 08:05:34;;;;;;;6.87;3.70;;;;;;;28.69;48.22;98117.81;5031788;28;20281;-67
2021/08/20 08:08:02;;;;;;;6.87;3.80;;;;;;;27.44;51.40;98112.50;5033857;28;20215;-66
2021/08/20 08:10:29;;;;;;;5.30;3.67;;;;;;;27.73;50.92;98112.97;5032933;28;20237;-66
2021/08/20 08:12:57;;;;;;;7.53;4.00;;;;;;;29.01;47.19;98115.56;5033230;28;20218;-66
2021/08/20 08:15:24;;;;;;;9.93;3.90;;;;;;;28.62;45.88;98128.41;5032754;28;20223;-66
2021/08/20 08:17:52;;;;;;;4.40;3.70;;;;;;;26.88;51.82;98123.75;5032773;28;20212;-66
2021/08/20 08:20:21;;;;;;;7.77;4.17;;;;;;;27.78;51.02;98121.09;5027058;28;20222;-66
2021/08/20 08:22:48;;;;;;;20.40;5.13;;;;;;;28.44;48.70;98123.94;5033007;28;20568;-66
2021/08/20 08:25:17;;;;;;;5.80;3.70;;;;;;;28.35;48.22;98131.28;5028278;28;20229;-66
2021/08/20 08:28:02;;;;;;;4.83;3.57;;;;;;;28.41;48.36;98130.88;5032999;28;20278;-66
2021/08/20 08:30:33;;;;;;;5.63;3.70;;;;;;;28.86;46.31;98139.88;5032230;28;20218;-66
2021/08/20 08:33:01;;;;;;;5.20;3.50;;;;;;;29.98;43.41;98142.69;5033338;28;20218;-66
2021/08/20 08:35:29;;;;;;;4.63;3.63;;;;;;;30.25;42.30;98150.69;5032504;28;20236;-67
2021/08/20 08:38:03;;;;;;;7.53;3.83;;;;;;;28.33;47.55;98134.31;5033154;28;20202;-67
2021/08/20 08:40:30;;;;;;;93.70;10.03;;;;;;;29.52;44.81;98135.00;5032814;28;20233;-66
2021/08/20 08:42:58;;;;;;;5.25;3.42;;;;;;;28.53;47.61;98133.06;5031415;28;20214;-66
2021/08/20 08:45:26;;;;;;;7.07;3.63;;;;;;;29.66;44.95;98134.91;5032054;28;20701;-66
2021/08/20 08:47:55;;;;;;;5.35;3.42;;;;;;;29.21;42.87;98147.19;5032460;28;20585;-67
2021/08/20 08:50:23;;;;;;;6.70;3.40;;;;;;;29.98;41.40;98146.28;5032203;28;20199;-67
2021/08/20 08:52:52;;;;;;;8.57;3.33;;;;;;;29.60;42.72;98147.19;5032312;28;20293;-66
2021/08/20 08:55:19;;;;;;;5.85;3.10;;;;;;;30.36;41.58;98152.78;5031738;28;20225;-66
2021/08/20 08:57:46;;;;;;;7.78;3.80;;;;;;;29.10;44.80;98141.16;5031999;28;20206;-66
2021/08/20 09:00:14;;;;;;;7.18;4.60;;;;;;;28.65;46.63;98141.53;5032331;28;20233;-66
2021/08/20 09:02:42;;;;;;;5.93;4.57;;;;;;;28.18;49.05;98133.91;5032186;28;20587;-66
2021/08/20 09:05:11;;;;;;;6.67;4.40;;;;;;;29.08;46.66;98137.13;5030555;28;20229;-66
2021/08/20 09:07:39;;;;;;;5.30;4.30;;;;;;;28.97;46.80;98142.06;5032181;28;20687;-66
2021/08/20 09:10:12;;;;;;;6.47;4.40;;;;;;;29.14;46.66;98141.34;5032520;28;20201;-66
2021/08/20 09:12:42;;;;;;;7.47;4.90;;;;;;;29.03;46.79;98148.25;5032269;28;20213;-66
2021/08/20 09:15:11;;;;;;;8.43;4.23;;;;;;;28.92;48.42;98133.09;5029967;28;20225;-66
2021/08/20 09:17:38;;;;;;;7.40;4.83;;;;;;;28.49;48.33;98137.53;5032299;28;20209;-66
2021/08/20 09:20:16;;;;;;;6.90;5.43;;;;;;;28.53;48.17;98139.34;5032040;28;20235;-66
2021/08/20 09:22:43;;;;;;;7.97;4.30;;;;;;;28.58;48.17;98135.66;5032486;28;20215;-66
2021/08/20 09:25:29;;;;;;;6.10;4.10;;;;;;;29.04;46.82;98136.91;5032243;28;20227;-66
2021/08/20 09:28:12;;;;;;;11.50;4.13;;;;;;;29.77;43.69;98145.28;5030706;28;20215;-66
2021/08/20 09:30:41;;;;;;;6.50;4.20;;;;;;;30.44;41.99;98148.41;5032032;28;20218;-67
2021/08/20 09:33:12;;;;;;;6.10;4.37;;;;;;;28.54;48.36;98131.94;5031386;28;20206;-67
2021/08/20 09:35:41;;;;;;;6.77;3.40;;;;;;;29.72;43.88;98148.19;5031106;28;20755;-66
2021/08/20 09:38:10;;;;;;;4.63;3.27;;;;;;;31.03;41.88;98139.22;5031741;28;20575;-67
2021/08/20 09:40:40;;;;;;;4.13;3.70;;;;;;;30.67;42.72;98133.34;5031603;28;20228;-67
2021/08/20 09:43:17;;;;;;;7.30;3.80;;;;;;;31.18;38.27;98158.81;5031771;28;20237;-67
2021/08/20 09:45:57;;;;;;;5.40;3.70;;;;;;;30.02;40.59;98155.50;5027483;28;20309;-67
2021/08/20 09:48:41;;;;;;;5.10;3.58;;;;;;;29.26;43.96;98152.53;5031815;28;20209;-66
2021/08/20 09:51:08;;;;;;;4.10;3.65;;;;;;;30.04;40.92;98142.22;5031216;28;20203;-67
2021/08/20 09:53:36;;;;;;;4.32;3.83;;;;;;;29.30;42.57;98142.53;5031437;28;20206;-67
2021/08/20 09:56:06;;;;;;;5.70;3.65;;;;;;;30.45;40.84;98139.03;5031258;28;20593;-66
2021/08/20 09:58:34;;;;;;;3.58;3.28;;;;;;;32.25;36.55;98152.53;5031592;28;20207;-67
2021/08/20 10:01:02;;;;;;;7.40;3.42;;;;;;;30.25;39.64;98156.22;5030721;28;20226;-67
2021/08/20 10:03:30;;;;;;;8.73;3.92;;;;;;;30.02;40.56;98141.75;5031779;28;20199;-66
2021/08/20 10:05:58;;;;;;;4.78;3.53;;;;;;;30.84;37.96;98158.91;5031078;28;20226;-66
2021/08/20 10:08:26;;;;;;;4.82;3.78;;;;;;;30.75;38.61;98152.59;5031302;28;20203;-66
2021/08/20 10:10:54;;;;;;;4.13;3.22;;;;;;;29.82;40.99;98144.31;5030856;28;20209;-67
2021/08/20 10:13:24;;;;;;;6.57;3.72;;;;;;;28.64;46.52;98131.66;5031432;28;20229;-66
2021/08/20 10:15:51;;;;;;;5.85;3.80;;;;;;;29.99;43.05;98139.63;5031432;28;20600;-66
2021/08/20 10:18:19;;;;;;;6.80;3.35;;;;;;;29.83;42.65;98138.50;5031472;28;20207;-66
2021/08/20 10:20:46;;;;;;;7.53;3.78;;;;;;;28.30;45.98;98142.38;5030947;28;20285;-66
2021/08/20 10:23:15;;;;;;;4.17;3.37;;;;;;;29.23;43.63;98142.97;5031281;28;20213;-66
2021/08/20 10:25:42;;;;;;;5.60;3.55;;;;;;;30.07;42.78;98140.78;5031389;28;20221;-66
2021/08/20 10:28:13;;;;;;;5.73;3.50;;;;;;;29.81;42.03;98142.69;5027513;28;20213;-66
2021/08/20 10:30:44;;;;;;;5.90;3.53;;;;;;;28.94;43.58;98142.66;5030454;28;20210;-67
2021/08/20 10:33:11;;;;;;;6.10;3.30;;;;;;;29.38;43.63;98139.81;5027576;28;20222;-67
2021/08/20 10:35:52;;;;;;;4.67;2.80;;;;;;;28.94;43.63;98141.84;5026571;28;20237;-66
2021/08/20 10:38:25;;;;;;;4.77;3.13;;;;;;;29.38;41.05;98139.81;5025080;28;20212;-66
2021/08/20 10:41:17;;;;;;;4.87;3.03;;;;;;;29.96;40.72;98143.06;5031015;28;20225;-66
2021/08/20 10:43:53;;;;;;;6.63;3.07;;;;;;;29.88;40.89;98140.25;5030652;28;20218;-67
2021/08/20 10:47:06;;;;;;;5.00;3.10;;;;;;;30.01;39.61;98133.81;5034640;28;20229;-66
2021/08/20 10:49:45;;;;;;;4.82;2.90;;;;;;;30.64;39.52;98128.44;5029844;28;20670;-66
2021/08/20 10:52:35;;;;;;;3.90;3.30;;;;;;;30.87;36.28;98149.97;5035001;28;20195;-67
2021/08/20 10:55:29;;;;;;;4.25;2.92;;;;;;;31.43;35.30;98148.84;5033918;28;20273;-67
2021/08/20 10:58:09;;;;;;;4.32;3.08;;;;;;;31.17;35.85;98153.63;5034709;28;20689;-66
2021/08/20 11:00:46;;;;;;;3.42;3.00;;;;;;;31.11;36.22;98147.47;5030445;28;20284;-66
2021/08/20 11:03:13;;;;;;;6.10;3.63;;;;;;;30.29;37.69;98148.88;5034447;28;20239;-66
2021/08/20 11:05:49;;;;;;;4.05;3.05;;;;;;;29.71;38.66;98143.00;5033689;28;20574;-66
2021/08/20 11:08:44;;;;;;;4.70;3.05;;;;;;;29.94;37.11;98156.31;5034329;28;20607;-66
2021/08/20 11:11:46;;;;;;;5.53;3.15;;;;;;;30.93;35.96;98153.38;5034948;28;20212;-66
2021/08/20 11:14:34;;;;;;;9.07;3.03;;;;;;;31.25;34.73;98159.13;5026782;28;20241;-66
2021/08/20 11:17:02;;;;;;;14.73;4.35;;;;;;;31.06;34.64;98152.38;5033442;28;20289;-66
2021/08/20 11:20:03;;;;;;;5.90;3.05;;;;;;;32.04;33.47;98154.50;5033727;28;20206;-66
2021/08/20 11:22:32;;;;;;;6.30;3.03;;;;;;;31.97;33.01;98153.41;5028836;28;20207;-66
2021/08/20 11:25:26;;;;;;;7.35;3.10;;;;;;;31.61;34.30;98155.88;5033173;28;20238;-67
2021/08/20 11:27:59;;;;;;;3.50;2.72;;;;;;;32.03;31.87;98152.88;5034412;28;20228;-66
2021/08/20 11:30:27;;;;;;;4.53;2.45;;;;;;;33.19;31.16;98160.75;5034505;28;20196;-67
2021/08/20 11:33:15;;;;;;;4.25;2.72;;;;;;;32.92;30.31;98169.69;5034824;28;20261;-67
2021/08/20 11:35:43;;;;;;;4.72;2.40;;;;;;;32.11;31.69;98153.94;5039003;28;20235;-66
2021/08/20 11:38:12;;;;;;;4.53;2.88;;;;;;;32.58;31.49;98156.16;5042616;28;20638;-67
2021/08/20 11:40:50;;;;;;;3.72;2.95;;;;;;;32.60;31.56;98156.66;5040049;28;20222;-67
2021/08/20 11:43:18;;;;;;;2.80;2.47;;;;;;;33.72;29.26;98159.75;5028873;28;20205;-67